createdAt,value
2022-08-24T00:01:58.557Z,59.87
2022-08-24T00:04:25.052Z,59.78
2022-08-24T00:06:52.274Z,59.95
2022-08-24T00:09:18.649Z,61.20
2022-08-24T00:11:45.061Z,61.24
2022-08-24T00:14:12.049Z,61.46
2022-08-24T00:16:38.441Z,61.57
2022-08-24T00:19:04.883Z,60.61
2022-08-24T00:21:31.309Z,60.38
2022-08-24T00:23:57.714Z,60.79
2022-08-24T00:26:29.277Z,60.85
2022-08-24T00:28:56.079Z,61.21
2022-08-24T00:31:22.484Z,62.17
2022-08-24T00:33:48.891Z,62.00
2022-08-24T00:36:15.241Z,62.88
2022-08-24T00:38:42.375Z,63.44
2022-08-24T00:41:08.746Z,64.18
2022-08-24T00:43:35.124Z,63.65
2022-08-24T00:46:01.629Z,64.15
2022-08-24T00:48:29.120Z,64.22
2022-08-24T00:50:59.330Z,64.58
2022-08-24T00:53:29.124Z,64.45
2022-08-24T00:55:57.384Z,65.05
2022-08-24T00:58:25.692Z,65.11
2022-08-24T01:00:55.097Z,65.48
2022-08-24T01:03:21.528Z,65.13
2022-08-24T01:05:48.611Z,65.70
2022-08-24T01:08:14.953Z,65.56
2022-08-24T01:10:42.414Z,65.27
2022-08-24T01:13:09.147Z,65.36
2022-08-24T01:15:37.502Z,65.99
2022-08-24T01:18:22.513Z,67.24
2022-08-24T01:20:54.388Z,67.80
2022-08-24T01:23:36.228Z,68.32
2022-08-24T01:26:02.855Z,69.11
2022-08-24T01:28:30.206Z,70.71
2022-08-24T01:30:58.655Z,71.23
2022-08-24T01:33:26.431Z,71.39
2022-08-24T01:36:00.101Z,72.78
2022-08-24T01:38:26.455Z,73.83
2022-08-24T01:40:53.566Z,74.49
2022-08-24T01:43:19.913Z,72.68
2022-08-24T01:45:46.265Z,72.05
2022-08-24T01:48:13.857Z,72.88
2022-08-24T01:50:40.242Z,71.19
2022-08-24T01:53:07.235Z,73.77
2022-08-24T01:55:33.806Z,74.32
2022-08-24T01:58:00.352Z,74.43
2022-08-24T02:00:26.814Z,74.11
2022-08-24T02:02:53.203Z,75.15
2022-08-24T02:05:19.607Z,74.79
2022-08-24T02:07:45.962Z,75.04
2022-08-24T02:10:14.914Z,73.52
2022-08-24T02:12:41.607Z,72.38
2022-08-24T02:15:08.674Z,71.56
2022-08-24T02:17:35.533Z,70.62
2022-08-24T02:20:02.278Z,70.24
2022-08-24T02:22:29.006Z,70.79
2022-08-24T02:24:55.370Z,70.74
2022-08-24T02:27:22.011Z,70.42
2022-08-24T02:29:48.366Z,70.28
2022-08-24T02:32:14.775Z,68.88
2022-08-24T02:34:41.174Z,69.53
2022-08-24T02:37:07.533Z,69.34
2022-08-24T02:39:33.912Z,69.12
2022-08-24T02:42:00.269Z,69.31
2022-08-24T02:44:26.876Z,70.29
2022-08-24T02:46:53.219Z,70.46
2022-08-24T02:49:21.317Z,71.00
2022-08-24T02:51:48.273Z,70.41
2022-08-24T02:54:17.662Z,70.62
2022-08-24T02:56:44.510Z,69.49
2022-08-24T02:59:11.503Z,68.59
2022-08-24T03:01:37.887Z,67.96
2022-08-24T03:04:04.335Z,67.81
2022-08-24T03:06:30.681Z,67.76
2022-08-24T03:08:57.161Z,68.85
2022-08-24T03:11:27.720Z,68.09
2022-08-24T03:13:55.394Z,67.74
2022-08-24T03:16:21.761Z,67.70
2022-08-24T03:18:48.100Z,67.52
2022-08-24T03:21:15.055Z,68.31
2022-08-24T03:23:41.407Z,68.57
2022-08-24T03:26:07.765Z,68.76
2022-08-24T03:28:34.122Z,68.62
2022-08-24T03:31:00.849Z,69.23
2022-08-24T03:33:27.222Z,69.56
2022-08-24T03:35:54.621Z,69.43
2022-08-24T03:38:21.297Z,69.68
2022-08-24T03:40:47.761Z,70.05
2022-08-24T03:43:34.357Z,69.83
2022-08-24T03:46:02.842Z,69.81
2022-08-24T03:48:29.774Z,70.04
2022-08-24T03:50:56.323Z,70.52
2022-08-24T03:53:22.695Z,70.31
2022-08-24T03:55:49.059Z,70.06
2022-08-24T03:58:15.408Z,69.93
2022-08-24T04:00:42.845Z,70.20
2022-08-24T04:03:12.029Z,70.24
2022-08-24T04:05:38.714Z,69.56
2022-08-24T04:08:06.030Z,69.77
2022-08-24T04:10:32.520Z,70.14
2022-08-24T04:12:59.811Z,70.30
2022-08-24T04:15:28.352Z,71.30
2022-08-24T04:17:54.706Z,70.80
2022-08-24T04:20:21.259Z,71.18
2022-08-24T04:22:51.363Z,70.53
2022-08-24T04:25:22.866Z,70.60
2022-08-24T04:27:51.176Z,70.38
2022-08-24T04:30:17.551Z,70.83
2022-08-24T04:32:43.898Z,71.22
2022-08-24T04:35:10.573Z,71.77
2022-08-24T04:37:36.926Z,72.11
2022-08-24T04:40:03.806Z,72.22
2022-08-24T04:42:31.589Z,71.65
2022-08-24T04:44:59.748Z,71.60
2022-08-24T04:47:26.258Z,71.57
2022-08-24T04:49:52.656Z,71.65
2022-08-24T04:52:19.046Z,71.58
2022-08-24T04:54:45.424Z,70.68
2022-08-24T04:57:17.285Z,69.99
2022-08-24T04:59:44.707Z,69.85
2022-08-24T05:02:11.177Z,70.56
2022-08-24T05:04:37.565Z,70.97
2022-08-24T05:07:04.019Z,71.15
2022-08-24T05:09:30.397Z,70.61
2022-08-24T05:11:58.080Z,70.40
2022-08-24T05:14:29.000Z,70.33
2022-08-24T05:16:55.525Z,70.30
2022-08-24T05:19:23.182Z,70.26
2022-08-24T05:21:49.548Z,70.13
2022-08-24T05:24:16.172Z,69.10
2022-08-24T05:26:42.523Z,69.33
2022-08-24T05:29:08.895Z,68.64
2022-08-24T05:31:35.289Z,68.76
2022-08-24T05:34:01.764Z,68.62
2022-08-24T05:36:29.076Z,68.09
2022-08-24T05:38:55.899Z,67.79
2022-08-24T05:41:22.414Z,67.72
2022-08-24T05:43:49.022Z,66.89
2022-08-24T05:46:15.598Z,66.67
2022-08-24T05:48:42.262Z,66.78
2022-08-24T05:51:08.770Z,65.83
2022-08-24T05:53:35.299Z,64.84
2022-08-24T05:56:09.670Z,64.37
2022-08-24T05:58:37.425Z,64.48
2022-08-24T06:01:14.028Z,64.03
2022-08-24T06:03:40.630Z,63.19
2022-08-24T06:06:08.551Z,63.78
2022-08-24T06:08:41.390Z,62.85
2022-08-24T06:11:08.366Z,62.29
2022-08-24T06:13:35.794Z,60.66
2022-08-24T06:16:20.389Z,60.19
2022-08-24T06:18:49.050Z,59.66
2022-08-24T06:21:16.397Z,60.03
2022-08-24T06:23:44.167Z,59.66
2022-08-24T06:26:29.284Z,57.73
2022-08-24T06:28:55.643Z,57.24
2022-08-24T06:31:22.255Z,57.96
2022-08-24T06:33:51.073Z,58.52
2022-08-24T06:36:17.459Z,58.50
2022-08-24T06:38:49.249Z,59.64
2022-08-24T06:41:16.428Z,58.32
2022-08-24T06:43:42.782Z,57.69
2022-08-24T06:46:09.293Z,57.69
2022-08-24T06:48:35.692Z,57.12
2022-08-24T06:51:02.470Z,58.08
2022-08-24T06:53:28.918Z,58.57
2022-08-24T06:55:58.770Z,58.47
2022-08-24T06:58:25.760Z,58.25
2022-08-24T07:00:52.118Z,57.51
2022-08-24T07:03:20.321Z,57.20
2022-08-24T07:05:52.939Z,57.15
2022-08-24T07:08:19.776Z,55.75
2022-08-24T07:10:46.174Z,55.69
2022-08-24T07:13:13.608Z,55.68
2022-08-24T07:15:40.528Z,56.33
2022-08-24T07:18:10.085Z,56.14
2022-08-24T07:20:36.927Z,55.86
2022-08-24T07:23:06.357Z,56.58
2022-08-24T07:25:33.567Z,57.50
2022-08-24T07:28:01.593Z,58.28
2022-08-24T07:30:28.161Z,57.83
2022-08-24T07:32:55.153Z,57.42
2022-08-24T07:35:22.155Z,55.80
2022-08-24T07:37:48.512Z,54.12
2022-08-24T07:40:17.365Z,53.85
2022-08-24T07:42:47.206Z,54.62
2022-08-24T07:45:13.811Z,53.41
2022-08-24T07:47:44.736Z,54.85
2022-08-24T07:50:16.235Z,54.31
2022-08-24T07:52:42.789Z,53.60
2022-08-24T07:55:09.269Z,54.63
2022-08-24T07:57:35.639Z,54.21
2022-08-24T08:00:02.206Z,52.78
2022-08-24T08:02:36.146Z,52.47
2022-08-24T08:05:02.812Z,52.43
2022-08-24T08:07:31.024Z,51.78
2022-08-24T08:09:57.374Z,51.71
2022-08-24T08:12:23.733Z,52.65
2022-08-24T08:14:50.085Z,51.80
2022-08-24T08:17:16.777Z,52.00
2022-08-24T08:19:43.794Z,51.05
2022-08-24T08:22:28.836Z,53.32
2022-08-24T08:24:55.183Z,50.90
2022-08-24T08:27:21.865Z,51.87
2022-08-24T08:29:48.958Z,49.78
2022-08-24T08:32:17.094Z,50.32
2022-08-24T08:34:43.925Z,50.26
2022-08-24T08:37:11.161Z,49.95
2022-08-24T08:39:37.507Z,48.78
2022-08-24T08:42:22.846Z,51.31
2022-08-24T08:45:12.873Z,50.41
2022-08-24T08:47:57.968Z,49.38
2022-08-24T08:50:34.113Z,48.31
2022-08-24T08:53:03.687Z,48.06
2022-08-24T08:55:33.849Z,47.13
2022-08-24T08:58:08.508Z,48.32
2022-08-24T09:00:56.141Z,46.86
2022-08-24T09:03:32.426Z,47.80
2022-08-24T09:06:05.230Z,46.80
2022-08-24T09:08:51.886Z,48.28
2022-08-24T09:11:38.075Z,47.11
2022-08-24T09:14:09.879Z,46.21
2022-08-24T09:16:47.284Z,45.68
2022-08-24T09:19:33.854Z,46.01
2022-08-24T09:22:13.587Z,45.53
2022-08-24T09:24:52.206Z,45.64
2022-08-24T09:27:25.703Z,44.56
2022-08-24T09:30:04.454Z,45.09
2022-08-24T09:32:35.517Z,44.23
2022-08-24T09:35:03.312Z,43.99
2022-08-24T09:37:32.776Z,43.74
2022-08-24T09:39:59.478Z,41.65
2022-08-24T09:42:32.387Z,44.36
2022-08-24T09:45:17.416Z,42.74
2022-08-24T09:48:02.527Z,41.53
2022-08-24T09:50:44.329Z,41.40
2022-08-24T09:53:29.293Z,41.35
2022-08-24T09:56:14.398Z,41.73
2022-08-24T09:58:50.549Z,42.34
2022-08-24T10:01:20.567Z,41.63
2022-08-24T10:04:08.357Z,41.48
2022-08-24T10:06:57.995Z,40.04
2022-08-24T10:09:43.039Z,40.92
2022-08-24T10:12:21.762Z,41.71
2022-08-24T10:15:14.687Z,40.30
2022-08-24T10:17:42.970Z,40.39
2022-08-24T10:20:17.032Z,41.21
2022-08-24T10:22:43.307Z,39.86
2022-08-24T10:25:28.581Z,39.81
2022-08-24T10:27:54.862Z,40.74
2022-08-24T10:30:34.011Z,39.23
2022-08-24T10:33:03.339Z,40.02
2022-08-24T10:35:35.169Z,39.81
2022-08-24T10:38:32.467Z,39.74
2022-08-24T10:41:05.752Z,39.19
2022-08-24T10:43:34.917Z,38.32
2022-08-24T10:46:07.373Z,37.83
2022-08-24T10:48:34.614Z,37.35
2022-08-24T10:51:10.005Z,36.71
2022-08-24T10:53:36.468Z,36.17
2022-08-24T10:56:08.089Z,36.42
2022-08-24T10:58:40.942Z,37.60
2022-08-24T11:01:15.648Z,37.04
2022-08-24T11:03:50.762Z,35.61
2022-08-24T11:06:17.476Z,34.82
2022-08-24T11:09:00.656Z,36.64
2022-08-24T11:11:31.439Z,36.08
2022-08-24T11:14:02.212Z,36.96
2022-08-24T11:16:38.815Z,36.18
2022-08-24T11:19:07.369Z,35.40
2022-08-24T11:21:33.813Z,34.97
2022-08-24T11:24:04.095Z,33.88
2022-08-24T11:26:30.473Z,35.78
2022-08-24T11:29:01.051Z,34.12
2022-08-24T11:31:35.962Z,34.22
2022-08-24T11:34:03.905Z,33.30
2022-08-24T11:36:32.637Z,33.53
2022-08-24T11:39:12.166Z,36.05
2022-08-24T11:41:43.266Z,34.65
2022-08-24T11:44:09.549Z,33.82
2022-08-24T11:46:51.700Z,35.26
2022-08-24T11:49:26.837Z,35.43
2022-08-24T11:51:53.127Z,35.12
2022-08-24T11:54:30.136Z,36.45
2022-08-24T11:57:10.804Z,34.02
2022-08-24T11:59:39.550Z,34.75
2022-08-24T12:02:08.446Z,35.57
2022-08-24T12:04:41.483Z,34.62
2022-08-24T12:07:11.686Z,35.45
2022-08-24T12:09:53.282Z,33.93
2022-08-24T12:12:32.133Z,33.99
2022-08-24T12:15:05.786Z,34.01
2022-08-24T12:17:50.538Z,34.75
2022-08-24T12:20:27.191Z,34.32
2022-08-24T12:22:54.266Z,34.93
2022-08-24T12:25:39.369Z,35.73
2022-08-24T12:28:05.988Z,34.56
2022-08-24T12:30:32.463Z,33.93
2022-08-24T12:33:00.558Z,33.87
2022-08-24T12:35:31.571Z,32.46
2022-08-24T12:38:04.352Z,32.08
2022-08-24T12:40:40.059Z,34.45
2022-08-24T12:43:08.618Z,33.67
2022-08-24T12:45:35.409Z,34.05
2022-08-24T12:48:15.498Z,32.36
2022-08-24T12:51:00.523Z,32.16
2022-08-24T12:53:36.204Z,33.08
2022-08-24T12:56:07.384Z,34.42
2022-08-24T12:58:53.798Z,33.42
2022-08-24T13:01:21.296Z,32.94
2022-08-24T13:04:03.422Z,32.56
2022-08-24T13:06:37.891Z,33.54
2022-08-24T13:09:05.674Z,31.93
2022-08-24T13:11:33.257Z,32.61
2022-08-24T13:14:12.555Z,32.92
2022-08-24T13:16:44.912Z,33.34
2022-08-24T13:19:16.579Z,34.04
2022-08-24T13:21:44.539Z,33.00
2022-08-24T13:24:29.641Z,31.67
2022-08-24T13:26:56.700Z,32.59
2022-08-24T13:29:25.322Z,31.44
2022-08-24T13:31:52.426Z,32.42
2022-08-24T13:34:20.775Z,33.30
2022-08-24T13:36:49.009Z,30.54
2022-08-24T13:39:20.901Z,30.35
2022-08-24T13:41:49.478Z,31.35
2022-08-24T13:44:19.176Z,31.80
2022-08-24T13:46:54.804Z,31.36
2022-08-24T13:49:30.053Z,31.47
2022-08-24T13:52:04.658Z,31.28
2022-08-24T13:54:45.346Z,35.82
2022-08-24T13:57:19.708Z,34.42
2022-08-24T13:59:52.532Z,33.76
2022-08-24T14:02:34.067Z,31.74
2022-08-24T14:05:09.387Z,32.78
2022-08-24T14:07:48.089Z,33.64
2022-08-24T14:10:23.164Z,31.50
2022-08-24T14:12:52.591Z,33.00
2022-08-24T14:15:25.111Z,32.71
2022-08-24T14:17:58.173Z,32.47
2022-08-24T14:20:27.748Z,32.16
2022-08-24T14:23:00.439Z,30.96
2022-08-24T14:25:30.269Z,31.64
2022-08-24T14:27:59.773Z,32.49
2022-08-24T14:30:26.108Z,32.01
2022-08-24T14:32:58.538Z,32.29
2022-08-24T14:35:31.201Z,32.66
2022-08-24T14:38:01.559Z,31.24
2022-08-24T14:40:37.283Z,31.69
2022-08-24T14:43:16.098Z,31.47
2022-08-24T14:46:01.265Z,31.74
2022-08-24T14:48:33.429Z,33.44
2022-08-24T14:50:59.735Z,33.46
2022-08-24T14:53:26.102Z,33.58
2022-08-24T14:56:01.904Z,34.42
2022-08-24T14:58:32.479Z,35.09
2022-08-24T15:01:05.088Z,34.22
2022-08-24T15:03:34.630Z,34.25
2022-08-24T15:06:25.822Z,34.60
2022-08-24T15:08:49.870Z,35.15
2022-08-24T15:11:18.229Z,35.86
2022-08-24T15:13:48.976Z,35.17
2022-08-24T15:16:34.624Z,35.41
2022-08-24T15:19:04.502Z,35.46
2022-08-24T15:21:34.448Z,35.40
2022-08-24T15:24:08.056Z,35.67
2022-08-24T15:26:45.238Z,37.24
2022-08-24T15:29:15.743Z,36.73
2022-08-24T15:31:42.323Z,36.65
2022-08-24T15:34:08.917Z,35.85
2022-08-24T15:36:35.332Z,37.46
2022-08-24T15:39:02.039Z,36.37
2022-08-24T15:41:32.265Z,36.61
2022-08-24T15:44:01.396Z,37.02
2022-08-24T15:46:42.537Z,37.82
2022-08-24T15:49:17.179Z,37.45
2022-08-24T15:51:43.533Z,36.99
2022-08-24T15:54:31.402Z,38.17
2022-08-24T15:56:59.426Z,36.78
2022-08-24T15:59:28.250Z,37.63
2022-08-24T16:02:29.865Z,38.36
2022-08-24T16:05:14.841Z,37.86
2022-08-24T16:07:57.299Z,37.15
2022-08-24T16:10:30.934Z,38.80
2022-08-24T16:13:07.462Z,37.88
2022-08-24T16:15:33.829Z,37.67
2022-08-24T16:18:00.287Z,38.11
2022-08-24T16:20:26.632Z,38.67
2022-08-24T16:23:00.275Z,39.39
2022-08-24T16:25:28.507Z,38.02
2022-08-24T16:28:03.398Z,39.43
2022-08-24T16:30:46.683Z,38.73
2022-08-24T16:33:31.237Z,39.11
2022-08-24T16:35:58.945Z,38.56
2022-08-24T16:38:27.950Z,37.87
2022-08-24T16:40:55.561Z,39.00
2022-08-24T16:43:21.919Z,38.79
2022-08-24T16:45:48.316Z,37.78
2022-08-24T16:48:14.695Z,37.85
2022-08-24T16:50:41.056Z,38.21
2022-08-24T16:53:07.482Z,38.58
2022-08-24T16:55:33.833Z,38.17
2022-08-24T16:58:01.498Z,38.18
2022-08-24T17:00:28.574Z,38.43
2022-08-24T17:02:55.198Z,38.99
2022-08-24T17:05:22.036Z,39.64
2022-08-24T17:07:50.210Z,38.99
2022-08-24T17:10:17.062Z,39.07
2022-08-24T17:12:43.564Z,39.46
2022-08-24T17:15:11.684Z,40.42
2022-08-24T17:17:38.355Z,39.60
2022-08-24T17:20:06.869Z,39.75
2022-08-24T17:22:33.449Z,39.79
2022-08-24T17:25:01.732Z,40.69
2022-08-24T17:27:29.186Z,41.22
2022-08-24T17:29:55.586Z,40.98
2022-08-24T17:32:21.936Z,40.66
2022-08-24T17:34:48.347Z,40.45
2022-08-24T17:37:14.948Z,41.07
2022-08-24T17:39:41.337Z,41.67
2022-08-24T17:42:22.291Z,42.34
2022-08-24T17:44:54.924Z,41.41
2022-08-24T17:47:22.044Z,42.40
2022-08-24T17:49:48.413Z,42.41
2022-08-24T17:52:14.778Z,42.75
2022-08-24T17:54:41.147Z,42.35
2022-08-24T17:57:07.487Z,43.20
2022-08-24T17:59:34.881Z,44.21
2022-08-24T18:02:12.322Z,44.91
2022-08-24T18:04:38.708Z,45.49
2022-08-24T18:07:09.596Z,45.22
2022-08-24T18:09:41.434Z,46.80
2022-08-24T18:12:07.880Z,47.01
2022-08-24T18:14:34.627Z,48.17
2022-08-24T18:17:05.339Z,46.66
2022-08-24T18:19:32.217Z,47.53
2022-08-24T18:21:58.585Z,46.66
2022-08-24T18:24:25.764Z,47.09
2022-08-24T18:26:52.571Z,47.99
2022-08-24T18:29:19.232Z,47.88
2022-08-24T18:32:03.007Z,47.09
2022-08-24T18:34:36.189Z,46.37
2022-08-24T18:37:12.109Z,46.37
2022-08-24T18:39:38.573Z,46.48
2022-08-24T18:42:05.375Z,47.17
2022-08-24T18:44:31.997Z,46.46
2022-08-24T18:46:58.448Z,46.76
2022-08-24T18:49:24.870Z,46.17
2022-08-24T18:51:51.405Z,46.03
2022-08-24T18:54:29.350Z,45.81
2022-08-24T18:56:55.805Z,45.26
2022-08-24T18:59:22.191Z,44.68
2022-08-24T19:02:07.597Z,44.94
2022-08-24T19:04:34.070Z,45.46
2022-08-24T19:07:02.792Z,45.40
2022-08-24T19:09:33.935Z,45.19
2022-08-24T19:12:00.785Z,45.15
2022-08-24T19:14:27.145Z,45.73
2022-08-24T19:16:53.500Z,45.70
2022-08-24T19:19:22.264Z,46.22
2022-08-24T19:21:48.892Z,46.24
2022-08-24T19:24:15.251Z,45.86
2022-08-24T19:26:41.616Z,45.45
2022-08-24T19:29:08.085Z,46.18
2022-08-24T19:31:34.654Z,46.40
2022-08-24T19:34:03.662Z,46.39
2022-08-24T19:36:30.272Z,47.22
2022-08-24T19:38:56.635Z,45.76
2022-08-24T19:41:23.380Z,46.24
2022-08-24T19:44:27.206Z,47.21
2022-08-24T19:46:54.259Z,47.21
2022-08-24T19:49:20.917Z,47.14
2022-08-24T19:51:47.273Z,47.66
2022-08-24T19:54:13.614Z,47.79
2022-08-24T19:56:39.975Z,47.97
2022-08-24T19:59:07.129Z,48.36
2022-08-24T20:01:35.061Z,48.14
2022-08-24T20:04:02.229Z,48.82
2022-08-24T20:06:29.210Z,50.84
2022-08-24T20:08:55.584Z,50.25
2022-08-24T20:11:25.311Z,49.46
2022-08-24T20:13:51.889Z,50.37
2022-08-24T20:16:19.092Z,50.93
2022-08-24T20:18:45.546Z,51.37
2022-08-24T20:21:16.004Z,52.45
2022-08-24T20:23:42.782Z,51.36
2022-08-24T20:26:09.209Z,51.84
2022-08-24T20:28:55.976Z,52.29
2022-08-24T20:31:28.039Z,52.84
2022-08-24T20:33:55.253Z,52.87
2022-08-24T20:36:23.992Z,53.68
2022-08-24T20:38:51.163Z,53.28
2022-08-24T20:41:17.564Z,52.24
2022-08-24T20:43:45.001Z,51.56
2022-08-24T20:46:11.383Z,51.69
2022-08-24T20:48:41.889Z,51.61
2022-08-24T20:51:09.624Z,51.56
2022-08-24T20:53:35.983Z,51.26
2022-08-24T20:56:03.535Z,51.31
2022-08-24T20:58:29.899Z,51.42
2022-08-24T21:00:56.480Z,51.82
2022-08-24T21:03:23.305Z,52.82
2022-08-24T21:05:52.408Z,52.41
2022-08-24T21:08:19.258Z,52.20
2022-08-24T21:10:45.685Z,52.33
2022-08-24T21:13:12.033Z,52.61
2022-08-24T21:15:38.431Z,52.97
2022-08-24T21:18:05.120Z,52.73
2022-08-24T21:20:32.647Z,52.95
2022-08-24T21:22:59.022Z,53.12
2022-08-24T21:25:25.686Z,52.65
2022-08-24T21:27:52.077Z,52.67
2022-08-24T21:30:19.449Z,52.85
2022-08-24T21:33:04.741Z,53.06
2022-08-24T21:35:31.251Z,53.06
2022-08-24T21:37:59.018Z,53.52
2022-08-24T21:40:25.455Z,53.50
2022-08-24T21:42:51.891Z,54.02
2022-08-24T21:45:18.359Z,53.62
2022-08-24T21:47:44.910Z,54.04
2022-08-24T21:50:11.434Z,54.10
2022-08-24T21:52:38.991Z,53.75
2022-08-24T21:55:11.732Z,54.16
2022-08-24T21:57:41.126Z,54.86
2022-08-24T22:00:09.159Z,54.43
2022-08-24T22:02:35.534Z,54.83
2022-08-24T22:05:01.927Z,54.41
2022-08-24T22:07:28.334Z,55.92
2022-08-24T22:09:55.110Z,54.56
2022-08-24T22:12:21.478Z,54.93
2022-08-24T22:14:47.838Z,54.34
2022-08-24T22:17:14.197Z,54.83
2022-08-24T22:19:40.543Z,54.67
2022-08-24T22:22:07.218Z,54.69
2022-08-24T22:24:33.608Z,55.53
2022-08-24T22:26:59.963Z,55.86
2022-08-24T22:29:26.612Z,56.02
2022-08-24T22:31:53.012Z,55.87
2022-08-24T22:34:20.663Z,55.76
2022-08-24T22:36:47.495Z,56.19
2022-08-24T22:39:13.921Z,56.87
2022-08-24T22:41:40.493Z,57.22
2022-08-24T22:44:18.997Z,57.05
2022-08-24T22:46:45.825Z,58.11
2022-08-24T22:49:12.292Z,58.64
2022-08-24T22:51:38.954Z,57.43
2022-08-24T22:54:05.312Z,58.07
2022-08-24T22:56:33.218Z,58.10
2022-08-24T22:59:01.694Z,56.84
2022-08-24T23:01:29.051Z,56.68
2022-08-24T23:03:55.782Z,56.56
2022-08-24T23:06:22.247Z,57.10
2022-08-24T23:08:48.614Z,57.98
2022-08-24T23:11:14.983Z,59.52
2022-08-24T23:13:41.558Z,58.65
2022-08-24T23:16:08.641Z,59.46
2022-08-24T23:18:53.895Z,58.63
2022-08-24T23:21:20.267Z,58.46
2022-08-24T23:23:46.629Z,60.07
2022-08-24T23:26:18.408Z,61.07
2022-08-24T23:28:45.282Z,62.31
2022-08-24T23:31:16.325Z,62.86
2022-08-24T23:33:42.926Z,62.03
2022-08-24T23:36:10.907Z,61.10
2022-08-24T23:38:37.255Z,61.33
2022-08-24T23:41:07.033Z,59.42
2022-08-24T23:43:36.623Z,60.56
2022-08-24T23:46:03.342Z,61.75
2022-08-24T23:48:29.805Z,61.06
2022-08-24T23:50:56.225Z,61.20
2022-08-24T23:53:23.793Z,62.32
2022-08-24T23:55:50.545Z,63.67
2022-08-24T23:58:16.919Z,62.99
